createdAt,value
2022-10-05T00:00:18.705Z,41.17
2022-10-05T00:02:46.460Z,41.12
2022-10-05T00:05:13.276Z,42.82
2022-10-05T00:07:40.098Z,44.18
2022-10-05T00:10:06.901Z,44.67
2022-10-05T00:12:33.701Z,48.38
2022-10-05T00:15:00.469Z,45.74
2022-10-05T00:17:27.242Z,44.09
2022-10-05T00:19:54.115Z,43.06
2022-10-05T00:22:20.978Z,42.54
2022-10-05T00:24:47.748Z,41.75
2022-10-05T00:27:14.542Z,41.93
2022-10-05T00:29:41.395Z,41.74
2022-10-05T00:32:08.220Z,41.76
2022-10-05T00:34:35.017Z,41.57
2022-10-05T00:37:01.808Z,41.44
2022-10-05T00:39:29.908Z,41.30
2022-10-05T00:41:56.693Z,41.44
2022-10-05T00:44:23.450Z,41.06
2022-10-05T00:46:50.234Z,44.89
2022-10-05T00:49:17.013Z,47.85
2022-10-05T00:51:43.875Z,46.51
2022-10-05T00:54:13.637Z,44.01
2022-10-05T00:56:44.488Z,43.13
2022-10-05T00:59:11.445Z,42.70
2022-10-05T01:01:38.298Z,41.53
2022-10-05T01:04:05.109Z,41.84
2022-10-05T01:06:31.951Z,41.45
2022-10-05T01:08:58.722Z,41.38
2022-10-05T01:11:25.501Z,41.47
2022-10-05T01:13:52.267Z,41.09
2022-10-05T01:16:19.097Z,40.71
2022-10-05T01:18:45.901Z,43.08
2022-10-05T01:21:12.675Z,44.17
2022-10-05T01:23:39.445Z,45.79
2022-10-05T01:26:06.249Z,48.20
2022-10-05T01:28:33.073Z,45.57
2022-10-05T01:30:59.923Z,43.71
2022-10-05T01:33:26.752Z,42.78
2022-10-05T01:35:53.572Z,42.50
2022-10-05T01:38:20.878Z,42.40
2022-10-05T01:40:47.719Z,42.01
2022-10-05T01:43:14.472Z,41.75
2022-10-05T01:45:41.312Z,41.32
2022-10-05T01:48:08.500Z,41.45
2022-10-05T01:50:35.272Z,40.68
2022-10-05T01:53:02.049Z,41.11
2022-10-05T01:55:28.818Z,40.63
2022-10-05T01:57:55.580Z,40.94
2022-10-05T02:00:22.350Z,40.97
2022-10-05T02:02:49.184Z,42.26
2022-10-05T02:05:16.449Z,44.65
2022-10-05T02:07:43.220Z,47.15
2022-10-05T02:10:10.012Z,47.18
2022-10-05T02:12:36.807Z,44.02
2022-10-05T02:15:03.590Z,43.20
2022-10-05T02:17:30.359Z,42.33
2022-10-05T02:19:57.196Z,42.32
2022-10-05T02:22:23.962Z,41.73
2022-10-05T02:24:50.752Z,41.59
2022-10-05T02:27:17.542Z,41.14
2022-10-05T02:29:44.311Z,41.11
2022-10-05T02:32:11.137Z,40.95
2022-10-05T02:34:37.922Z,40.83
2022-10-05T02:37:04.727Z,40.97
2022-10-05T02:39:31.514Z,40.23
2022-10-05T02:41:58.293Z,44.20
2022-10-05T02:44:25.053Z,46.00
2022-10-05T02:46:56.775Z,47.99
2022-10-05T02:49:24.057Z,44.24
2022-10-05T02:51:50.846Z,43.14
2022-10-05T02:54:17.738Z,42.38
2022-10-05T02:56:44.826Z,41.60
2022-10-05T02:59:11.826Z,41.67
2022-10-05T03:01:38.719Z,41.42
2022-10-05T03:04:05.576Z,40.96
2022-10-05T03:06:32.353Z,41.12
2022-10-05T03:08:59.201Z,40.89
2022-10-05T03:11:26.401Z,40.68
2022-10-05T03:13:53.175Z,40.85
2022-10-05T03:16:19.993Z,40.54
2022-10-05T03:18:46.809Z,43.77
2022-10-05T03:21:13.952Z,43.88
2022-10-05T03:23:40.749Z,45.54
2022-10-05T03:26:07.572Z,46.75
2022-10-05T03:28:34.464Z,44.51
2022-10-05T03:31:01.444Z,42.86
2022-10-05T03:33:28.892Z,41.88
2022-10-05T03:35:55.648Z,41.62
2022-10-05T03:38:22.429Z,41.78
2022-10-05T03:40:49.195Z,41.29
2022-10-05T03:43:16.074Z,41.03
2022-10-05T03:45:42.881Z,40.79
2022-10-05T03:48:09.700Z,40.87
2022-10-05T03:50:36.467Z,40.92
2022-10-05T03:53:03.364Z,40.88
2022-10-05T03:55:30.266Z,41.05
2022-10-05T03:57:57.035Z,40.58
2022-10-05T04:00:23.914Z,43.47
2022-10-05T04:02:50.910Z,44.32
2022-10-05T04:05:17.792Z,48.73
2022-10-05T04:07:46.611Z,46.23
2022-10-05T04:10:13.417Z,43.56
2022-10-05T04:12:40.213Z,42.51
2022-10-05T04:15:07.009Z,42.22
2022-10-05T04:17:33.822Z,41.60
2022-10-05T04:20:00.601Z,41.45
2022-10-05T04:22:27.389Z,40.75
2022-10-05T04:24:54.269Z,41.01
2022-10-05T04:27:21.028Z,40.98
2022-10-05T04:29:47.812Z,40.71
2022-10-05T04:32:14.658Z,40.49
2022-10-05T04:34:41.404Z,40.48
2022-10-05T04:37:08.177Z,40.20
2022-10-05T04:39:34.929Z,41.14
2022-10-05T04:42:01.705Z,44.58
2022-10-05T04:44:28.615Z,46.70
2022-10-05T04:46:55.413Z,46.29
2022-10-05T04:49:22.259Z,43.92
2022-10-05T04:51:51.259Z,42.28
2022-10-05T04:54:18.241Z,41.29
2022-10-05T04:56:45.282Z,41.44
2022-10-05T04:59:12.293Z,41.15
2022-10-05T05:01:39.094Z,41.35
2022-10-05T05:04:05.906Z,40.74
2022-10-05T05:06:32.717Z,40.88
2022-10-05T05:08:59.485Z,40.64
2022-10-05T05:11:26.261Z,40.70
2022-10-05T05:13:53.030Z,40.25
2022-10-05T05:16:19.866Z,40.10
2022-10-05T05:18:46.662Z,43.63
2022-10-05T05:21:13.505Z,44.83
2022-10-05T05:23:40.281Z,48.71
2022-10-05T05:26:07.048Z,44.97
2022-10-05T05:28:33.927Z,42.63
2022-10-05T05:31:00.830Z,42.02
2022-10-05T05:33:27.660Z,41.64
2022-10-05T05:35:54.542Z,41.10
2022-10-05T05:38:21.314Z,41.05
2022-10-05T05:40:48.079Z,40.81
2022-10-05T05:43:14.891Z,40.81
2022-10-05T05:45:41.923Z,40.79
2022-10-05T05:48:08.821Z,39.82
2022-10-05T05:50:35.726Z,40.09
2022-10-05T05:53:02.496Z,40.13
2022-10-05T05:55:30.501Z,39.81
2022-10-05T05:57:58.125Z,41.42
2022-10-05T06:00:25.033Z,43.59
2022-10-05T06:02:52.026Z,43.27
2022-10-05T06:05:18.914Z,48.12
2022-10-05T06:07:45.745Z,44.85
2022-10-05T06:10:12.553Z,42.98
2022-10-05T06:12:39.399Z,42.15
2022-10-05T06:15:06.187Z,41.44
2022-10-05T06:17:33.001Z,40.75
2022-10-05T06:20:04.707Z,41.14
2022-10-05T06:22:32.148Z,40.68
2022-10-05T06:24:58.926Z,40.52
2022-10-05T06:27:25.738Z,40.69
2022-10-05T06:29:52.534Z,40.36
2022-10-05T06:32:19.302Z,40.08
2022-10-05T06:34:46.069Z,40.23
2022-10-05T06:37:12.875Z,40.27
2022-10-05T06:39:39.639Z,43.71
2022-10-05T06:42:06.428Z,46.33
2022-10-05T06:44:33.217Z,46.69
2022-10-05T06:47:00.004Z,43.86
2022-10-05T06:49:26.809Z,42.06
2022-10-05T06:51:53.601Z,41.51
2022-10-05T06:54:20.368Z,41.01
2022-10-05T06:56:47.515Z,41.15
2022-10-05T06:59:14.738Z,40.86
2022-10-05T07:01:41.645Z,40.23
2022-10-05T07:04:08.555Z,40.25
2022-10-05T07:06:35.518Z,40.33
2022-10-05T07:09:02.273Z,40.09
2022-10-05T07:11:29.042Z,39.82
2022-10-05T07:13:55.820Z,39.62
2022-10-05T07:16:22.619Z,42.97
2022-10-05T07:18:49.479Z,45.59
2022-10-05T07:21:16.347Z,47.50
2022-10-05T07:23:43.149Z,43.33
2022-10-05T07:26:09.918Z,41.67
2022-10-05T07:28:36.772Z,41.20
2022-10-05T07:31:03.659Z,41.14
2022-10-05T07:33:30.469Z,40.62
2022-10-05T07:36:15.768Z,40.59
2022-10-05T07:38:42.596Z,40.04
2022-10-05T07:41:09.534Z,40.30
2022-10-05T07:43:57.916Z,39.97
2022-10-05T07:46:23.197Z,39.73
2022-10-05T07:48:50.033Z,39.62
2022-10-05T07:51:16.804Z,42.38
2022-10-05T07:53:43.569Z,46.68
2022-10-05T07:56:10.521Z,45.58
2022-10-05T07:58:37.343Z,42.27
2022-10-05T08:01:04.123Z,41.39
2022-10-05T08:03:31.337Z,40.50
2022-10-05T08:05:58.102Z,40.59
2022-10-05T08:08:24.888Z,40.18
2022-10-05T08:10:51.632Z,40.22
2022-10-05T08:13:18.383Z,39.79
2022-10-05T08:15:47.364Z,39.74
2022-10-05T08:18:14.230Z,40.29
2022-10-05T08:20:40.997Z,46.24
2022-10-05T08:23:07.795Z,45.99
2022-10-05T08:25:34.799Z,43.24
2022-10-05T08:28:01.757Z,41.46
2022-10-05T08:30:28.992Z,40.69
2022-10-05T08:32:55.771Z,40.63
2022-10-05T08:35:22.541Z,40.42
2022-10-05T08:37:49.308Z,40.25
2022-10-05T08:40:16.174Z,39.92
2022-10-05T08:42:43.005Z,39.95
2022-10-05T08:45:10.094Z,41.34
2022-10-05T08:47:37.142Z,45.96
2022-10-05T08:50:03.961Z,46.39
2022-10-05T08:52:30.783Z,42.56
2022-10-05T08:54:57.534Z,41.41
2022-10-05T08:57:24.338Z,40.90
2022-10-05T08:59:51.159Z,40.46
2022-10-05T09:02:18.341Z,40.28
2022-10-05T09:04:45.270Z,39.75
2022-10-05T09:07:12.066Z,39.69
2022-10-05T09:09:38.872Z,39.91
2022-10-05T09:12:05.754Z,39.72
2022-10-05T09:14:32.580Z,45.17
2022-10-05T09:16:59.436Z,45.92
2022-10-05T09:19:26.242Z,44.51
2022-10-05T09:21:53.082Z,41.99
2022-10-05T09:24:19.895Z,40.85
2022-10-05T09:26:46.667Z,40.61
2022-10-05T09:29:13.471Z,40.48
2022-10-05T09:31:40.273Z,40.36
2022-10-05T09:34:07.645Z,40.28
2022-10-05T09:36:34.449Z,40.08
2022-10-05T09:39:01.219Z,39.95
2022-10-05T09:41:28.025Z,40.22
2022-10-05T09:43:54.802Z,46.38
2022-10-05T09:46:21.819Z,46.22
2022-10-05T09:48:48.661Z,43.04
2022-10-05T09:51:15.518Z,41.77
2022-10-05T09:53:42.318Z,40.79
2022-10-05T09:56:09.297Z,40.27
2022-10-05T09:58:36.220Z,40.61
2022-10-05T10:01:09.846Z,40.20
2022-10-05T10:03:42.954Z,40.16
2022-10-05T10:06:11.816Z,39.96
2022-10-05T10:08:38.718Z,39.92
2022-10-05T10:11:05.520Z,45.12
2022-10-05T10:13:32.312Z,47.46
2022-10-05T10:15:59.438Z,44.35
2022-10-05T10:18:26.279Z,41.62
2022-10-05T10:20:53.043Z,41.06
2022-10-05T10:23:19.920Z,41.02
2022-10-05T10:25:46.711Z,40.84
2022-10-05T10:28:13.583Z,40.61
2022-10-05T10:30:40.383Z,40.44
2022-10-05T10:33:11.700Z,40.37
2022-10-05T10:35:38.463Z,39.34
2022-10-05T10:38:05.269Z,39.48
2022-10-05T10:40:34.768Z,43.47
2022-10-05T10:43:03.510Z,47.01
2022-10-05T10:45:30.301Z,45.53
2022-10-05T10:47:57.190Z,42.07
2022-10-05T10:50:24.116Z,41.07
2022-10-05T10:52:53.741Z,40.60
2022-10-05T10:55:20.536Z,40.53
2022-10-05T10:57:47.327Z,40.48
2022-10-05T11:00:15.620Z,40.28
2022-10-05T11:02:42.666Z,40.26
2022-10-05T11:05:09.485Z,40.15
2022-10-05T11:07:36.233Z,43.63
2022-10-05T11:10:03.026Z,46.38
2022-10-05T11:12:34.381Z,46.01
2022-10-05T11:15:01.527Z,42.24
2022-10-05T11:17:29.308Z,41.42
2022-10-05T11:20:06.352Z,40.77
2022-10-05T11:22:33.145Z,40.67
2022-10-05T11:24:59.940Z,40.39
2022-10-05T11:27:26.772Z,40.30
2022-10-05T11:29:53.555Z,40.14
2022-10-05T11:32:20.314Z,42.80
2022-10-05T11:34:47.086Z,46.74
2022-10-05T11:37:13.890Z,46.79
2022-10-05T11:39:40.743Z,42.59
2022-10-05T11:42:07.557Z,40.81
2022-10-05T11:44:34.458Z,40.71
2022-10-05T11:47:01.305Z,40.70
2022-10-05T11:49:28.096Z,40.28
2022-10-05T11:51:54.871Z,39.90
2022-10-05T11:54:21.616Z,40.67
2022-10-05T11:56:50.777Z,44.96
2022-10-05T11:59:20.836Z,46.59
2022-10-05T12:01:47.589Z,43.62
2022-10-05T12:04:14.392Z,41.29
2022-10-05T12:06:41.189Z,40.77
2022-10-05T12:09:07.960Z,40.62
2022-10-05T12:11:34.719Z,40.30
2022-10-05T12:14:01.610Z,40.54
2022-10-05T12:16:28.488Z,40.23
2022-10-05T12:18:55.281Z,40.33
2022-10-05T12:21:22.806Z,45.33
2022-10-05T12:23:49.574Z,47.30
2022-10-05T12:26:16.336Z,43.98
2022-10-05T12:28:43.113Z,41.79
2022-10-05T12:31:09.895Z,41.18
2022-10-05T12:33:36.746Z,40.39
2022-10-05T12:36:03.539Z,40.06
2022-10-05T12:38:31.692Z,40.53
2022-10-05T12:40:58.448Z,40.52
2022-10-05T12:43:25.351Z,40.44
2022-10-05T12:45:52.458Z,40.45
2022-10-05T12:48:19.253Z,44.34
2022-10-05T12:50:46.541Z,47.43
2022-10-05T12:53:13.421Z,44.35
2022-10-05T12:55:40.188Z,41.95
2022-10-05T12:58:07.187Z,41.04
2022-10-05T13:00:34.166Z,41.05
2022-10-05T13:03:00.966Z,40.92
2022-10-05T13:05:27.759Z,40.81
2022-10-05T13:07:54.609Z,40.63
2022-10-05T13:10:22.433Z,44.32
2022-10-05T13:12:49.216Z,46.59
2022-10-05T13:15:16.020Z,46.14
2022-10-05T13:17:42.788Z,42.24
2022-10-05T13:20:09.554Z,40.98
2022-10-05T13:22:36.465Z,41.03
2022-10-05T13:25:03.240Z,40.94
2022-10-05T13:27:30.041Z,40.52
2022-10-05T13:29:56.882Z,40.68
2022-10-05T13:32:23.681Z,40.79
2022-10-05T13:34:50.460Z,40.83
2022-10-05T13:37:17.315Z,45.87
2022-10-05T13:39:44.145Z,47.40
2022-10-05T13:42:11.000Z,44.62
2022-10-05T13:44:37.780Z,42.01
2022-10-05T13:47:04.529Z,41.29
2022-10-05T13:49:31.379Z,41.16
2022-10-05T13:51:58.595Z,41.00
2022-10-05T13:54:25.341Z,40.86
2022-10-05T13:56:52.130Z,40.26
2022-10-05T13:59:18.893Z,40.69
2022-10-05T14:01:45.730Z,41.99
2022-10-05T14:04:12.517Z,46.86
2022-10-05T14:06:39.290Z,47.91
2022-10-05T14:09:06.059Z,43.34
2022-10-05T14:11:32.907Z,42.01
2022-10-05T14:13:59.686Z,41.23
2022-10-05T14:16:26.529Z,41.09
2022-10-05T14:18:53.691Z,40.59
2022-10-05T14:21:22.174Z,40.71
2022-10-05T14:23:49.073Z,40.86
2022-10-05T14:26:15.867Z,40.71
2022-10-05T14:28:43.504Z,45.63
2022-10-05T14:31:10.496Z,47.65
2022-10-05T14:33:38.154Z,44.21
2022-10-05T14:36:04.956Z,42.12
2022-10-05T14:38:31.729Z,41.70
2022-10-05T14:40:58.557Z,41.39
2022-10-05T14:43:25.334Z,41.22
2022-10-05T14:45:52.172Z,40.92
2022-10-05T14:48:19.041Z,40.79
2022-10-05T14:50:46.314Z,40.64
2022-10-05T14:53:14.023Z,46.05
2022-10-05T14:55:42.587Z,47.69
2022-10-05T14:58:09.366Z,44.56
2022-10-05T15:00:38.638Z,42.60
2022-10-05T15:03:05.464Z,41.64
2022-10-05T15:05:32.405Z,40.89
2022-10-05T15:07:59.160Z,41.29
2022-10-05T15:10:26.889Z,41.11
2022-10-05T15:12:55.093Z,40.26
2022-10-05T15:15:25.347Z,40.66
2022-10-05T15:17:52.532Z,45.41
2022-10-05T15:20:19.322Z,47.72
2022-10-05T15:22:46.362Z,45.18
2022-10-05T15:25:13.149Z,42.20
2022-10-05T15:27:39.984Z,41.83
2022-10-05T15:30:07.628Z,41.67
2022-10-05T15:32:34.467Z,41.38
2022-10-05T15:35:01.504Z,40.99
2022-10-05T15:37:28.251Z,40.90
2022-10-05T15:39:55.045Z,40.30
2022-10-05T15:42:21.893Z,41.81
2022-10-05T15:44:48.953Z,46.53
2022-10-05T15:47:18.896Z,47.97
2022-10-05T15:49:45.672Z,43.82
2022-10-05T15:52:12.507Z,42.11
2022-10-05T15:54:42.418Z,41.77
2022-10-05T15:57:09.195Z,40.92
2022-10-05T15:59:37.399Z,40.85
2022-10-05T16:02:06.118Z,40.84
2022-10-05T16:04:32.920Z,40.82
2022-10-05T16:07:18.561Z,40.74
2022-10-05T16:09:45.365Z,43.02
2022-10-05T16:12:12.134Z,47.38
2022-10-05T16:14:38.953Z,47.73
2022-10-05T16:17:05.793Z,43.54
2022-10-05T16:19:32.624Z,41.95
2022-10-05T16:21:59.617Z,41.54
2022-10-05T16:24:26.413Z,41.10
2022-10-05T16:26:53.188Z,41.04
2022-10-05T16:29:20.000Z,40.86
2022-10-05T16:31:47.043Z,40.60
2022-10-05T16:34:17.047Z,40.82
2022-10-05T16:36:44.476Z,40.65
2022-10-05T16:39:11.305Z,46.59
2022-10-05T16:41:38.260Z,48.02
2022-10-05T16:44:05.078Z,44.74
2022-10-05T16:46:31.891Z,42.31
2022-10-05T16:48:58.706Z,41.93
2022-10-05T16:51:25.522Z,41.52
2022-10-05T16:53:52.282Z,41.24
2022-10-05T16:56:19.076Z,41.29
2022-10-05T16:58:45.882Z,41.17
2022-10-05T17:01:12.726Z,40.89
2022-10-05T17:03:40.013Z,46.61
2022-10-05T17:06:06.825Z,48.26
2022-10-05T17:08:33.588Z,45.55
2022-10-05T17:11:00.345Z,42.30
2022-10-05T17:13:28.375Z,41.93
2022-10-05T17:15:55.250Z,41.89
2022-10-05T17:18:23.680Z,41.23
2022-10-05T17:20:50.773Z,41.02
2022-10-05T17:23:18.277Z,40.87
2022-10-05T17:25:45.045Z,42.85
2022-10-05T17:28:12.742Z,47.46
2022-10-05T17:30:39.646Z,48.13
2022-10-05T17:33:06.565Z,43.64
2022-10-05T17:35:33.373Z,42.33
2022-10-05T17:38:00.158Z,42.05
2022-10-05T17:40:28.603Z,41.71
2022-10-05T17:42:55.457Z,41.53
2022-10-05T17:45:22.278Z,40.98
2022-10-05T17:47:49.051Z,40.85
2022-10-05T17:50:34.504Z,40.93
2022-10-05T17:53:39.762Z,40.82
2022-10-05T17:56:06.629Z,47.03
2022-10-05T17:58:33.398Z,46.57
2022-10-05T18:01:00.640Z,45.04
2022-10-05T18:03:27.437Z,42.64
2022-10-05T18:05:54.220Z,41.96
2022-10-05T18:08:21.185Z,41.38
2022-10-05T18:10:47.980Z,41.45
2022-10-05T18:13:14.990Z,40.99
2022-10-05T18:15:44.678Z,41.37
2022-10-05T18:18:31.487Z,42.75
2022-10-05T18:20:58.341Z,47.67
2022-10-05T18:23:25.539Z,48.43
2022-10-05T18:25:52.326Z,44.23
2022-10-05T18:28:19.122Z,42.49
2022-10-05T18:30:45.993Z,41.82
2022-10-05T18:33:12.885Z,41.48
2022-10-05T18:35:39.652Z,41.60
2022-10-05T18:38:06.674Z,41.60
2022-10-05T18:40:34.502Z,41.09
2022-10-05T18:43:01.914Z,41.15
2022-10-05T18:45:28.691Z,41.09
2022-10-05T18:47:55.482Z,45.16
2022-10-05T18:50:22.398Z,48.42
2022-10-05T18:52:49.418Z,46.26
2022-10-05T18:55:16.242Z,43.07
2022-10-05T18:57:43.016Z,42.77
2022-10-05T19:00:09.786Z,42.09
2022-10-05T19:02:36.731Z,41.73
2022-10-05T19:05:03.548Z,41.83
2022-10-05T19:07:30.307Z,41.57
2022-10-05T19:09:57.081Z,41.50
2022-10-05T19:12:23.858Z,41.42
2022-10-05T19:14:50.631Z,45.43
2022-10-05T19:17:17.721Z,48.39
2022-10-05T19:19:44.552Z,45.68
2022-10-05T19:22:11.360Z,43.35
2022-10-05T19:24:39.721Z,42.09
2022-10-05T19:27:06.673Z,41.95
2022-10-05T19:29:34.220Z,41.88
2022-10-05T19:32:01.029Z,41.53
2022-10-05T19:34:28.294Z,41.63
2022-10-05T19:36:55.113Z,41.38
2022-10-05T19:39:21.959Z,41.30
2022-10-05T19:41:50.517Z,46.11
2022-10-05T19:44:17.356Z,48.36
2022-10-05T19:46:44.197Z,45.87
2022-10-05T19:49:11.013Z,43.13
2022-10-05T19:51:38.547Z,42.35
2022-10-05T19:54:05.324Z,42.11
2022-10-05T19:56:32.151Z,41.53
2022-10-05T19:59:00.884Z,41.64
2022-10-05T20:01:30.619Z,41.29
2022-10-05T20:04:00.281Z,41.46
2022-10-05T20:06:29.593Z,41.95
2022-10-05T20:09:00.185Z,47.80
2022-10-05T20:11:31.399Z,48.56
2022-10-05T20:14:01.028Z,44.32
2022-10-05T20:16:46.688Z,43.25
2022-10-05T20:19:32.048Z,41.92
2022-10-05T20:22:00.389Z,41.77
2022-10-05T20:24:27.197Z,41.48
2022-10-05T20:27:06.239Z,41.51
2022-10-05T20:29:33.233Z,41.68
2022-10-05T20:32:00.434Z,41.37
2022-10-05T20:34:27.269Z,46.38
2022-10-05T20:36:54.068Z,48.78
2022-10-05T20:39:21.376Z,46.00
2022-10-05T20:41:48.222Z,43.50
2022-10-05T20:44:15.061Z,42.42
2022-10-05T20:46:41.921Z,42.01
2022-10-05T20:49:10.577Z,42.00
2022-10-05T20:51:37.408Z,41.91
2022-10-05T20:54:04.172Z,41.93
2022-10-05T20:56:30.989Z,41.53
2022-10-05T20:58:57.769Z,41.16
2022-10-05T21:01:26.643Z,46.41
2022-10-05T21:03:53.505Z,48.35
2022-10-05T21:06:26.296Z,46.38
2022-10-05T21:08:54.124Z,43.34
2022-10-05T21:11:20.885Z,42.77
2022-10-05T21:13:47.724Z,42.16
2022-10-05T21:16:16.252Z,41.91
2022-10-05T21:18:44.279Z,41.34
2022-10-05T21:21:11.042Z,41.28
2022-10-05T21:23:37.825Z,41.92
2022-10-05T21:26:04.585Z,41.55
2022-10-05T21:28:33.799Z,46.65
2022-10-05T21:31:00.633Z,47.06
2022-10-05T21:33:27.696Z,45.13
2022-10-05T21:35:54.609Z,42.74
2022-10-05T21:38:21.397Z,42.76
2022-10-05T21:40:48.164Z,41.95
2022-10-05T21:43:14.918Z,41.80
2022-10-05T21:45:41.734Z,41.88
2022-10-05T21:48:08.569Z,42.35
2022-10-05T21:50:35.360Z,48.09
2022-10-05T21:53:02.136Z,48.56
2022-10-05T21:55:29.018Z,44.67
2022-10-05T21:57:55.992Z,42.88
2022-10-05T22:00:22.810Z,42.35
2022-10-05T22:02:49.678Z,42.27
2022-10-05T22:05:16.597Z,41.82
2022-10-05T22:07:43.426Z,41.91
2022-10-05T22:10:10.198Z,41.99
2022-10-05T22:12:36.970Z,41.45
2022-10-05T22:15:04.805Z,42.02
2022-10-05T22:17:31.764Z,47.50
2022-10-05T22:19:58.571Z,48.07
2022-10-05T22:22:25.428Z,44.54
2022-10-05T22:24:52.211Z,43.35
2022-10-05T22:27:18.968Z,42.74
2022-10-05T22:29:45.761Z,42.42
2022-10-05T22:32:12.545Z,42.06
2022-10-05T22:34:39.332Z,41.47
2022-10-05T22:37:06.324Z,42.17
2022-10-05T22:39:33.072Z,42.11
2022-10-05T22:41:59.859Z,47.54
2022-10-05T22:44:26.639Z,49.24
2022-10-05T22:46:53.426Z,45.13
2022-10-05T22:49:20.211Z,43.66
2022-10-05T22:51:49.098Z,42.74
2022-10-05T22:54:15.874Z,42.41
2022-10-05T22:56:42.667Z,42.10
2022-10-05T22:59:09.485Z,42.18
2022-10-05T23:01:36.408Z,41.92
2022-10-05T23:04:04.371Z,42.10
2022-10-05T23:06:31.132Z,44.74
2022-10-05T23:08:57.933Z,48.44
2022-10-05T23:11:25.738Z,48.27
2022-10-05T23:13:52.779Z,44.55
2022-10-05T23:16:19.610Z,43.08
2022-10-05T23:18:46.656Z,42.94
2022-10-05T23:21:13.489Z,42.43
2022-10-05T23:23:40.255Z,42.14
2022-10-05T23:26:07.052Z,41.84
2022-10-05T23:28:34.236Z,41.84
2022-10-05T23:31:01.339Z,41.92
2022-10-05T23:33:28.118Z,46.58
2022-10-05T23:35:54.879Z,48.85
2022-10-05T23:38:22.361Z,46.91
2022-10-05T23:40:49.139Z,44.04
2022-10-05T23:43:15.982Z,42.95
2022-10-05T23:45:42.847Z,42.72
2022-10-05T23:48:09.859Z,42.26
2022-10-05T23:50:36.705Z,42.30
2022-10-05T23:53:03.530Z,42.12
2022-10-05T23:55:30.292Z,41.92
2022-10-05T23:57:57.077Z,42.07
